createdAt,value
2022-11-20T00:00:01.720Z,1009.10
2022-11-20T00:01:02.520Z,1009.08
2022-11-20T00:02:01.795Z,1009.04
2022-11-20T00:03:01.752Z,1008.99
2022-11-20T00:04:01.730Z,1009.04
2022-11-20T00:05:01.706Z,1009.06
2022-11-20T00:06:01.923Z,1009.06
2022-11-20T00:07:01.738Z,1009.09
2022-11-20T00:08:01.618Z,1009.03
2022-11-20T00:09:03.125Z,1009.02
2022-11-20T00:10:02.318Z,1009.01
2022-11-20T00:11:02.558Z,1009.00
2022-11-20T00:12:02.558Z,1008.96
2022-11-20T00:13:01.598Z,1008.97
2022-11-20T00:14:01.570Z,1008.96
2022-11-20T00:15:03.018Z,1008.96
2022-11-20T00:16:02.479Z,1008.99
2022-11-20T00:17:02.629Z,1008.98
2022-11-20T00:18:01.526Z,1009.02
2022-11-20T00:19:01.581Z,1009.04
2022-11-20T00:20:02.416Z,1008.97
2022-11-20T00:21:02.909Z,1008.99
2022-11-20T00:22:02.869Z,1009.00
2022-11-20T00:23:02.982Z,1008.98
2022-11-20T00:24:02.369Z,1008.99
2022-11-20T00:25:02.859Z,1008.92
2022-11-20T00:26:02.347Z,1008.95
2022-11-20T00:27:02.360Z,1008.96
2022-11-20T00:28:02.828Z,1008.95
2022-11-20T00:29:01.451Z,1008.91
2022-11-20T00:30:02.802Z,1008.87
2022-11-20T00:31:01.975Z,1008.90
2022-11-20T00:32:02.279Z,1008.97
2022-11-20T00:33:02.303Z,1009.01
2022-11-20T00:34:02.320Z,1008.93
2022-11-20T00:35:02.278Z,1008.90
2022-11-20T00:36:02.762Z,1008.94
2022-11-20T00:37:02.723Z,1008.90
2022-11-20T00:38:02.729Z,1008.91
2022-11-20T00:39:02.290Z,1008.90
2022-11-20T00:40:02.762Z,1008.96
2022-11-20T00:41:02.213Z,1008.98
2022-11-20T00:42:02.225Z,1009.04
2022-11-20T00:43:02.201Z,1009.02
2022-11-20T00:44:02.151Z,1009.02
2022-11-20T00:45:02.642Z,1009.07
2022-11-20T00:46:02.670Z,1009.04
2022-11-20T00:47:02.637Z,1009.08
2022-11-20T00:48:02.251Z,1009.08
2022-11-20T00:49:01.950Z,1009.08
2022-11-20T00:50:01.142Z,1009.07
2022-11-20T00:51:02.611Z,1009.02
2022-11-20T00:52:02.651Z,1009.01
2022-11-20T00:53:01.126Z,1009.03
2022-11-20T00:54:02.552Z,1008.99
2022-11-20T00:55:01.082Z,1009.00
2022-11-20T00:56:02.531Z,1009.02
2022-11-20T00:57:02.514Z,1009.04
2022-11-20T00:58:04.495Z,1009.02
2022-11-20T00:59:02.501Z,1008.97
2022-11-20T01:00:01.045Z,1009.03
2022-11-20T01:01:02.523Z,1009.02
2022-11-20T01:02:01.032Z,1008.96
2022-11-20T01:03:02.482Z,1008.98
2022-11-20T01:04:02.464Z,1008.95
2022-11-20T01:05:01.744Z,1008.92
2022-11-20T01:06:00.997Z,1008.93
2022-11-20T01:07:02.454Z,1008.90
2022-11-20T01:08:01.012Z,1008.99
2022-11-20T01:09:00.971Z,1009.00
2022-11-20T01:10:00.971Z,1008.97
2022-11-20T01:11:02.362Z,1008.93
2022-11-20T01:12:00.958Z,1009.02
2022-11-20T01:13:00.905Z,1008.92
2022-11-20T01:14:00.893Z,1008.95
2022-11-20T01:15:00.894Z,1008.98
2022-11-20T01:16:02.359Z,1008.93
2022-11-20T01:17:00.864Z,1008.99
2022-11-20T01:18:02.304Z,1008.98
2022-11-20T01:19:00.848Z,1008.98
2022-11-20T01:20:02.276Z,1008.98
2022-11-20T01:21:00.844Z,1008.94
2022-11-20T01:22:01.773Z,1008.96
2022-11-20T01:23:00.813Z,1008.99
2022-11-20T01:24:00.804Z,1008.93
2022-11-20T01:25:00.805Z,1008.93
2022-11-20T01:26:00.984Z,1008.94
2022-11-20T01:27:00.814Z,1008.87
2022-11-20T01:28:02.207Z,1008.91
2022-11-20T01:29:02.225Z,1008.86
2022-11-20T01:30:01.390Z,1008.85
2022-11-20T01:31:02.164Z,1008.81
2022-11-20T01:32:00.724Z,1008.82
2022-11-20T01:33:01.677Z,1008.81
2022-11-20T01:34:00.704Z,1008.77
2022-11-20T01:35:02.114Z,1008.81
2022-11-20T01:36:02.145Z,1008.76
2022-11-20T01:37:00.715Z,1008.72
2022-11-20T01:38:00.814Z,1008.70
2022-11-20T01:39:02.085Z,1008.69
2022-11-20T01:40:01.567Z,1008.62
2022-11-20T01:41:00.609Z,1008.68
2022-11-20T01:42:03.508Z,1008.66
2022-11-20T01:43:00.612Z,1008.64
2022-11-20T01:44:00.593Z,1008.64
2022-11-20T01:45:02.038Z,1008.68
2022-11-20T01:46:00.568Z,1008.62
2022-11-20T01:47:01.466Z,1008.59
2022-11-20T01:48:01.988Z,1008.63
2022-11-20T01:49:01.988Z,1008.62
2022-11-20T01:50:01.964Z,1008.58
2022-11-20T01:51:00.558Z,1008.60
2022-11-20T01:52:00.496Z,1008.56
2022-11-20T01:53:01.956Z,1008.52
2022-11-20T01:54:01.937Z,1008.48
2022-11-20T01:55:00.487Z,1008.50
2022-11-20T01:56:01.918Z,1008.50
2022-11-20T01:57:01.995Z,1008.51
2022-11-20T01:58:00.474Z,1008.49
2022-11-20T01:59:01.900Z,1008.48
2022-11-20T02:00:01.393Z,1008.48
2022-11-20T02:01:01.925Z,1008.44
2022-11-20T02:02:01.839Z,1008.39
2022-11-20T02:03:01.328Z,1008.39
2022-11-20T02:04:00.377Z,1008.35
2022-11-20T02:05:01.305Z,1008.38
2022-11-20T02:06:00.338Z,1008.35
2022-11-20T02:07:01.361Z,1008.35
2022-11-20T02:08:01.777Z,1008.37
2022-11-20T02:09:00.529Z,1008.36
2022-11-20T02:10:01.268Z,1008.35
2022-11-20T02:11:00.318Z,1008.38
2022-11-20T02:12:01.744Z,1008.37
2022-11-20T02:13:01.238Z,1008.30
2022-11-20T02:14:00.396Z,1008.32
2022-11-20T02:15:01.189Z,1008.33
2022-11-20T02:16:01.168Z,1008.33
2022-11-20T02:17:00.352Z,1008.32
2022-11-20T02:18:01.198Z,1008.30
2022-11-20T02:19:01.583Z,1008.27
2022-11-20T02:20:01.170Z,1008.30
2022-11-20T02:21:01.667Z,1008.32
2022-11-20T02:22:01.112Z,1008.29
2022-11-20T02:23:01.670Z,1008.29
2022-11-20T02:24:01.099Z,1008.34
2022-11-20T02:25:00.159Z,1008.33
2022-11-20T02:26:01.109Z,1008.35
2022-11-20T02:27:00.339Z,1008.37
2022-11-20T02:28:00.160Z,1008.36
2022-11-20T02:29:00.120Z,1008.36
2022-11-20T02:30:01.570Z,1008.33
2022-11-20T02:31:01.008Z,1008.37
2022-11-20T02:32:01.059Z,1008.35
2022-11-20T02:33:01.528Z,1008.36
2022-11-20T02:34:00.988Z,1008.35
2022-11-20T02:35:00.429Z,1008.36
2022-11-20T02:36:01.463Z,1008.35
2022-11-20T02:37:01.568Z,1008.34
2022-11-20T02:38:00.939Z,1008.36
2022-11-20T02:39:00.949Z,1008.35
2022-11-20T02:40:01.431Z,1008.28
2022-11-20T02:41:00.940Z,1008.28
2022-11-20T02:42:01.392Z,1008.32
2022-11-20T02:43:02.824Z,1008.29
2022-11-20T02:44:00.882Z,1008.29
2022-11-20T02:45:00.873Z,1008.25
2022-11-20T02:46:00.853Z,1008.31
2022-11-20T02:47:00.852Z,1008.26
2022-11-20T02:47:59.913Z,1008.31
2022-11-20T02:49:00.874Z,1008.27
2022-11-20T02:50:01.329Z,1008.27
2022-11-20T02:51:01.321Z,1008.29
2022-11-20T02:52:00.889Z,1008.29
2022-11-20T02:53:01.311Z,1008.34
2022-11-20T02:54:01.802Z,1008.32
2022-11-20T02:55:00.895Z,1008.34
2022-11-20T02:56:00.782Z,1008.36
2022-11-20T02:57:00.769Z,1008.31
2022-11-20T02:58:01.260Z,1008.33
2022-11-20T02:59:00.732Z,1008.33
2022-11-20T03:00:01.213Z,1008.31
2022-11-20T03:01:00.762Z,1008.36
2022-11-20T03:02:01.181Z,1008.34
2022-11-20T03:03:00.115Z,1008.29
2022-11-20T03:04:01.674Z,1008.30
2022-11-20T03:05:01.200Z,1008.34
2022-11-20T03:06:01.154Z,1008.24
2022-11-20T03:07:00.736Z,1008.23
2022-11-20T03:08:01.143Z,1008.20
2022-11-20T03:09:01.147Z,1008.20
2022-11-20T03:10:01.601Z,1008.16
2022-11-20T03:11:00.633Z,1008.18
2022-11-20T03:12:01.582Z,1008.16
2022-11-20T03:13:01.221Z,1008.15
2022-11-20T03:14:01.572Z,1008.22
2022-11-20T03:15:01.163Z,1008.15
2022-11-20T03:16:01.541Z,1008.19
2022-11-20T03:17:01.342Z,1008.16
2022-11-20T03:18:00.552Z,1008.16
2022-11-20T03:19:01.542Z,1008.22
2022-11-20T03:20:01.504Z,1008.18
2022-11-20T03:21:00.593Z,1008.19
2022-11-20T03:22:01.491Z,1008.24
2022-11-20T03:23:01.015Z,1008.15
2022-11-20T03:23:59.533Z,1008.17
2022-11-20T03:25:01.572Z,1008.16
2022-11-20T03:26:00.971Z,1008.14
2022-11-20T03:27:01.433Z,1008.11
2022-11-20T03:28:01.435Z,1008.11
2022-11-20T03:29:01.426Z,1008.11
2022-11-20T03:30:01.402Z,1008.12
2022-11-20T03:31:00.531Z,1008.11
2022-11-20T03:32:00.407Z,1008.07
2022-11-20T03:33:00.705Z,1008.08
2022-11-20T03:34:01.388Z,1008.04
2022-11-20T03:35:00.877Z,1008.02
2022-11-20T03:36:02.262Z,1007.93
2022-11-20T03:37:00.491Z,1007.93
2022-11-20T03:38:01.333Z,1007.92
2022-11-20T03:39:01.334Z,1007.94
2022-11-20T03:40:00.342Z,1007.95
2022-11-20T03:41:01.323Z,1007.91
2022-11-20T03:42:01.294Z,1007.92
2022-11-20T03:43:02.213Z,1007.90
2022-11-20T03:44:01.283Z,1007.85
2022-11-20T03:45:01.276Z,1007.89
2022-11-20T03:46:01.233Z,1007.85
2022-11-20T03:47:00.773Z,1007.87
2022-11-20T03:48:01.266Z,1007.87
2022-11-20T03:49:00.725Z,1007.88
2022-11-20T03:50:01.234Z,1007.84
2022-11-20T03:51:00.224Z,1007.88
2022-11-20T03:52:01.198Z,1007.83
2022-11-20T03:53:01.179Z,1007.86
2022-11-20T03:54:01.266Z,1007.81
2022-11-20T03:55:00.164Z,1007.82
2022-11-20T03:56:01.134Z,1007.85
2022-11-20T03:57:01.148Z,1007.85
2022-11-20T03:58:01.124Z,1007.84
2022-11-20T03:59:02.008Z,1007.84
2022-11-20T04:00:00.616Z,1007.83
2022-11-20T04:01:01.095Z,1007.84
2022-11-20T04:02:01.125Z,1007.87
2022-11-20T04:03:00.557Z,1007.82
2022-11-20T04:04:01.055Z,1007.80
2022-11-20T04:05:00.047Z,1007.86
2022-11-20T04:06:01.078Z,1007.82
2022-11-20T04:07:01.057Z,1007.78
2022-11-20T04:08:00.515Z,1007.77
2022-11-20T04:09:01.006Z,1007.81
2022-11-20T04:10:01.007Z,1007.78
2022-11-20T04:11:01.884Z,1007.76
2022-11-20T04:12:01.008Z,1007.73
2022-11-20T04:13:00.975Z,1007.72
2022-11-20T04:14:00.965Z,1007.74
2022-11-20T04:15:00.959Z,1007.79
2022-11-20T04:16:00.935Z,1007.79
2022-11-20T04:17:00.425Z,1007.83
2022-11-20T04:18:00.957Z,1007.75
2022-11-20T04:19:00.047Z,1007.77
2022-11-20T04:19:59.943Z,1007.75
2022-11-20T04:21:00.857Z,1007.83
2022-11-20T04:21:59.868Z,1007.80
2022-11-20T04:23:00.356Z,1007.81
2022-11-20T04:24:01.861Z,1007.83
2022-11-20T04:24:59.825Z,1007.83
2022-11-20T04:26:00.326Z,1007.83
2022-11-20T04:27:00.806Z,1007.81
2022-11-20T04:28:00.807Z,1007.83
2022-11-20T04:29:00.306Z,1007.79
2022-11-20T04:30:00.542Z,1007.77
2022-11-20T04:31:00.804Z,1007.82
2022-11-20T04:31:59.784Z,1007.82
2022-11-20T04:33:00.747Z,1007.82
2022-11-20T04:34:00.762Z,1007.80
2022-11-20T04:35:00.749Z,1007.77
2022-11-20T04:36:00.848Z,1007.85
2022-11-20T04:36:59.730Z,1007.81
2022-11-20T04:37:59.725Z,1007.79
2022-11-20T04:38:59.708Z,1007.81
2022-11-20T04:39:59.696Z,1007.85
2022-11-20T04:40:59.666Z,1007.83
2022-11-20T04:42:00.767Z,1007.82
2022-11-20T04:42:59.683Z,1007.84
2022-11-20T04:43:59.646Z,1007.88
2022-11-20T04:45:00.679Z,1007.86
2022-11-20T04:46:00.622Z,1007.77
2022-11-20T04:46:59.617Z,1007.78
2022-11-20T04:47:59.633Z,1007.77
2022-11-20T04:48:59.588Z,1007.77
2022-11-20T04:49:59.592Z,1007.76
2022-11-20T04:51:00.060Z,1007.76
2022-11-20T04:51:59.575Z,1007.78
2022-11-20T04:52:59.550Z,1007.77
2022-11-20T04:54:01.587Z,1007.78
2022-11-20T04:54:59.544Z,1007.71
2022-11-20T04:55:59.802Z,1007.73
2022-11-20T04:57:00.517Z,1007.70
2022-11-20T04:57:59.488Z,1007.76
2022-11-20T04:58:59.487Z,1007.73
2022-11-20T05:00:00.037Z,1007.70
2022-11-20T05:00:59.438Z,1007.71
2022-11-20T05:01:59.495Z,1007.69
2022-11-20T05:02:59.951Z,1007.65
2022-11-20T05:03:59.424Z,1007.63
2022-11-20T05:04:59.430Z,1007.63
2022-11-20T05:05:58.510Z,1007.64
2022-11-20T05:06:58.481Z,1007.67
2022-11-20T05:08:00.410Z,1007.63
2022-11-20T05:08:59.393Z,1007.70
2022-11-20T05:09:59.369Z,1007.68
2022-11-20T05:10:58.431Z,1007.68
2022-11-20T05:11:59.360Z,1007.68
2022-11-20T05:12:59.352Z,1007.68
2022-11-20T05:13:59.325Z,1007.65
2022-11-20T05:14:59.311Z,1007.61
2022-11-20T05:15:58.379Z,1007.64
2022-11-20T05:16:58.477Z,1007.64
2022-11-20T05:17:58.369Z,1007.64
2022-11-20T05:18:58.389Z,1007.68
2022-11-20T05:19:59.338Z,1007.64
2022-11-20T05:20:58.356Z,1007.64
2022-11-20T05:21:59.771Z,1007.65
2022-11-20T05:22:59.331Z,1007.65
2022-11-20T05:23:59.701Z,1007.64
2022-11-20T05:24:59.710Z,1007.65
2022-11-20T05:26:00.229Z,1007.64
2022-11-20T05:26:59.712Z,1007.65
2022-11-20T05:28:00.199Z,1007.65
2022-11-20T05:28:59.222Z,1007.64
2022-11-20T05:29:59.690Z,1007.61
2022-11-20T05:30:59.640Z,1007.62
2022-11-20T05:32:00.170Z,1007.57
2022-11-20T05:33:00.198Z,1007.60
2022-11-20T05:33:58.259Z,1007.57
2022-11-20T05:34:59.635Z,1007.57
2022-11-20T05:35:59.633Z,1007.54
2022-11-20T05:36:58.165Z,1007.56
2022-11-20T05:37:59.621Z,1007.57
2022-11-20T05:39:01.743Z,1007.57
2022-11-20T05:39:59.610Z,1007.54
2022-11-20T05:40:58.219Z,1007.55
2022-11-20T05:41:59.554Z,1007.55
2022-11-20T05:42:59.071Z,1007.50
2022-11-20T05:43:59.542Z,1007.49
2022-11-20T05:44:59.011Z,1007.48
2022-11-20T05:45:59.003Z,1007.49
2022-11-20T05:46:59.522Z,1007.50
2022-11-20T05:47:59.002Z,1007.53
2022-11-20T05:48:59.462Z,1007.49
2022-11-20T05:49:59.473Z,1007.45
2022-11-20T05:50:59.470Z,1007.49
2022-11-20T05:51:59.461Z,1007.45
2022-11-20T05:52:58.951Z,1007.50
2022-11-20T05:53:58.003Z,1007.46
2022-11-20T05:54:58.012Z,1007.52
2022-11-20T05:55:59.921Z,1007.58
2022-11-20T05:56:58.180Z,1007.52
2022-11-20T05:57:59.414Z,1007.53
2022-11-20T05:58:58.019Z,1007.56
2022-11-20T05:59:58.894Z,1007.51
2022-11-20T06:00:58.972Z,1007.52
2022-11-20T06:01:59.373Z,1007.55
2022-11-20T06:02:58.847Z,1007.52
2022-11-20T06:03:57.932Z,1007.51
2022-11-20T06:04:59.441Z,1007.51
2022-11-20T06:05:58.115Z,1007.48
2022-11-20T06:06:58.801Z,1007.48
2022-11-20T06:07:58.293Z,1007.50
2022-11-20T06:08:59.314Z,1007.47
2022-11-20T06:09:59.271Z,1007.46
2022-11-20T06:10:57.933Z,1007.48
2022-11-20T06:11:59.277Z,1007.47
2022-11-20T06:12:59.256Z,1007.45
2022-11-20T06:13:57.989Z,1007.47
2022-11-20T06:14:59.216Z,1007.42
2022-11-20T06:15:58.784Z,1007.45
2022-11-20T06:16:58.025Z,1007.48
2022-11-20T06:17:57.810Z,1007.53
2022-11-20T06:18:57.823Z,1007.53
2022-11-20T06:19:57.800Z,1007.53
2022-11-20T06:20:59.183Z,1007.56
2022-11-20T06:21:58.705Z,1007.53
2022-11-20T06:22:58.713Z,1007.55
2022-11-20T06:23:59.158Z,1007.51
2022-11-20T06:24:59.136Z,1007.55
2022-11-20T06:25:57.682Z,1007.54
2022-11-20T06:26:59.144Z,1007.51
2022-11-20T06:27:59.094Z,1007.53
2022-11-20T06:28:59.205Z,1007.56
2022-11-20T06:29:57.641Z,1007.60
2022-11-20T06:30:57.644Z,1007.61
2022-11-20T06:31:59.053Z,1007.61
2022-11-20T06:32:59.045Z,1007.62
2022-11-20T06:33:59.045Z,1007.62
2022-11-20T06:34:59.043Z,1007.66
2022-11-20T06:36:01.674Z,1007.58
2022-11-20T06:36:58.594Z,1007.69
2022-11-20T06:37:58.994Z,1007.71
2022-11-20T06:38:58.994Z,1007.69
2022-11-20T06:39:58.983Z,1007.70
2022-11-20T06:40:58.503Z,1007.72
2022-11-20T06:41:59.466Z,1007.71
2022-11-20T06:42:58.455Z,1007.68
2022-11-20T06:43:58.945Z,1007.65
2022-11-20T06:44:58.605Z,1007.63
2022-11-20T06:45:58.920Z,1007.64
2022-11-20T06:46:58.524Z,1007.65
2022-11-20T06:47:59.470Z,1007.67
2022-11-20T06:48:57.434Z,1007.64
2022-11-20T06:49:58.882Z,1007.66
2022-11-20T06:50:57.425Z,1007.68
2022-11-20T06:51:58.844Z,1007.68
2022-11-20T06:52:58.144Z,1007.70
2022-11-20T06:53:58.855Z,1007.69
2022-11-20T06:54:58.816Z,1007.74
2022-11-20T06:55:58.827Z,1007.68
2022-11-20T06:56:58.316Z,1007.74
2022-11-20T06:57:58.785Z,1007.73
2022-11-20T06:58:57.376Z,1007.76
2022-11-20T06:59:58.304Z,1007.73
2022-11-20T07:00:58.325Z,1007.73
2022-11-20T07:01:58.745Z,1007.75
2022-11-20T07:02:58.726Z,1007.71
2022-11-20T07:03:59.390Z,1007.71
2022-11-20T07:04:58.847Z,1007.75
2022-11-20T07:05:59.236Z,1007.72
2022-11-20T07:06:57.568Z,1007.72
2022-11-20T07:07:58.696Z,1007.65
2022-11-20T07:08:57.286Z,1007.68
2022-11-20T07:09:58.705Z,1007.64
2022-11-20T07:10:58.307Z,1007.56
2022-11-20T07:11:57.456Z,1007.64
2022-11-20T07:12:58.229Z,1007.64
2022-11-20T07:13:57.354Z,1007.67
2022-11-20T07:14:58.199Z,1007.69
2022-11-20T07:15:57.241Z,1007.66
2022-11-20T07:16:58.196Z,1007.64
2022-11-20T07:17:58.131Z,1007.68
2022-11-20T07:18:58.596Z,1007.69
2022-11-20T07:19:58.086Z,1007.69
2022-11-20T07:20:57.157Z,1007.66
2022-11-20T07:21:58.577Z,1007.75
2022-11-20T07:22:58.564Z,1007.77
2022-11-20T07:23:58.538Z,1007.81
2022-11-20T07:24:58.516Z,1007.78
2022-11-20T07:25:58.056Z,1007.76
2022-11-20T07:26:58.531Z,1007.79
2022-11-20T07:27:58.000Z,1007.84
2022-11-20T07:28:58.506Z,1007.79
2022-11-20T07:29:58.059Z,1007.84
2022-11-20T07:30:57.395Z,1007.83
2022-11-20T07:31:58.018Z,1007.84
2022-11-20T07:32:58.526Z,1007.88
2022-11-20T07:33:58.547Z,1007.81
2022-11-20T07:34:57.198Z,1007.82
2022-11-20T07:35:58.480Z,1007.80
2022-11-20T07:36:58.477Z,1007.74
2022-11-20T07:37:57.960Z,1007.83
2022-11-20T07:38:56.972Z,1007.73
2022-11-20T07:39:57.912Z,1007.80
2022-11-20T07:40:58.630Z,1007.77
2022-11-20T07:41:58.379Z,1007.71
2022-11-20T07:42:56.940Z,1007.72
2022-11-20T07:43:57.901Z,1007.72
2022-11-20T07:44:56.942Z,1007.70
2022-11-20T07:45:56.932Z,1007.73
2022-11-20T07:46:57.150Z,1007.66
2022-11-20T07:47:58.341Z,1007.60
2022-11-20T07:48:58.334Z,1007.65
2022-11-20T07:49:56.848Z,1007.63
2022-11-20T07:50:56.883Z,1007.65
2022-11-20T07:52:03.265Z,1007.60
2022-11-20T07:52:57.860Z,1007.64
2022-11-20T07:53:57.779Z,1007.72
2022-11-20T07:54:57.847Z,1007.80
2022-11-20T07:55:56.779Z,1007.84
2022-11-20T07:56:57.709Z,1007.80
2022-11-20T07:57:56.780Z,1007.76
2022-11-20T07:58:58.259Z,1007.75
2022-11-20T07:59:58.200Z,1007.73
2022-11-20T08:00:58.265Z,1007.65
2022-11-20T08:01:58.650Z,1007.73
2022-11-20T08:02:58.139Z,1007.66
2022-11-20T08:03:58.849Z,1007.67
2022-11-20T08:04:58.130Z,1007.70
2022-11-20T08:05:57.599Z,1007.68
2022-11-20T08:06:59.071Z,1007.66
2022-11-20T08:07:58.090Z,1007.63
2022-11-20T08:08:57.723Z,1007.68
2022-11-20T08:09:58.043Z,1007.66
2022-11-20T08:10:57.651Z,1007.63
2022-11-20T08:11:57.522Z,1007.64
2022-11-20T08:12:57.531Z,1007.65
2022-11-20T08:13:58.011Z,1007.65
2022-11-20T08:14:58.013Z,1007.60
2022-11-20T08:15:57.543Z,1007.60
2022-11-20T08:16:57.500Z,1007.55
2022-11-20T08:18:28.814Z,1007.61
2022-11-20T08:18:58.986Z,1007.54
2022-11-20T08:19:57.930Z,1007.53
2022-11-20T08:20:57.933Z,1007.64
2022-11-20T08:21:57.922Z,1007.58
2022-11-20T08:22:56.744Z,1007.56
2022-11-20T08:23:57.931Z,1007.59
2022-11-20T08:24:56.490Z,1007.54
2022-11-20T08:25:57.428Z,1007.49
2022-11-20T08:26:57.866Z,1007.50
2022-11-20T08:28:00.379Z,1007.48
2022-11-20T08:28:57.382Z,1007.48
2022-11-20T08:29:57.341Z,1007.47
2022-11-20T08:30:57.321Z,1007.47
2022-11-20T08:31:57.323Z,1007.52
2022-11-20T08:32:57.311Z,1007.50
2022-11-20T08:33:57.845Z,1007.55
2022-11-20T08:34:57.825Z,1007.54
2022-11-20T08:35:57.274Z,1007.53
2022-11-20T08:36:57.779Z,1007.63
2022-11-20T08:37:57.274Z,1007.59
2022-11-20T08:38:57.764Z,1007.63
2022-11-20T08:39:57.785Z,1007.62
2022-11-20T08:40:57.763Z,1007.56
2022-11-20T08:41:57.213Z,1007.60
2022-11-20T08:42:57.281Z,1007.59
2022-11-20T08:43:56.293Z,1007.61
2022-11-20T08:44:57.184Z,1007.61
2022-11-20T08:45:56.236Z,1007.68
2022-11-20T08:46:57.264Z,1007.71
2022-11-20T08:47:57.154Z,1007.65
2022-11-20T08:48:57.146Z,1007.70
2022-11-20T08:49:57.136Z,1007.73
2022-11-20T08:50:57.153Z,1007.77
2022-11-20T08:51:57.133Z,1007.73
2022-11-20T08:52:57.758Z,1007.68
2022-11-20T08:53:58.154Z,1007.64
2022-11-20T08:54:57.094Z,1007.64
2022-11-20T08:55:56.171Z,1007.70
2022-11-20T08:56:57.074Z,1007.67
2022-11-20T08:57:57.098Z,1007.69
2022-11-20T09:00:06.180Z,1007.64
2022-11-20T09:00:58.640Z,1007.64
2022-11-20T09:01:56.355Z,1007.63
2022-11-20T09:02:57.219Z,1007.69
2022-11-20T09:03:57.055Z,1007.60
2022-11-20T09:04:57.796Z,1007.59
2022-11-20T09:05:56.975Z,1007.62
2022-11-20T09:06:57.000Z,1007.59
2022-11-20T09:07:57.005Z,1007.62
2022-11-20T09:08:56.077Z,1007.67
2022-11-20T09:10:22.154Z,1007.65
2022-11-20T09:10:58.055Z,1007.62
2022-11-20T09:11:56.025Z,1007.62
2022-11-20T09:12:56.027Z,1007.58
2022-11-20T09:13:56.000Z,1007.59
2022-11-20T09:14:56.868Z,1007.56
2022-11-20T09:15:56.298Z,1007.55
2022-11-20T09:16:56.975Z,1007.51
2022-11-20T09:17:56.467Z,1007.53
2022-11-20T09:19:20.200Z,1007.53
2022-11-20T09:19:56.926Z,1007.48
2022-11-20T09:20:56.867Z,1007.54
2022-11-20T09:21:59.675Z,1007.49
2022-11-20T09:22:56.905Z,1007.43
2022-11-20T09:23:56.798Z,1007.42
2022-11-20T09:24:55.877Z,1007.43
2022-11-20T09:25:56.766Z,1007.41
2022-11-20T09:26:57.018Z,1007.42
2022-11-20T09:27:56.318Z,1007.39
2022-11-20T09:28:58.059Z,1007.36
2022-11-20T09:29:56.788Z,1007.36
2022-11-20T09:30:56.377Z,1007.34
2022-11-20T09:31:55.795Z,1007.29
2022-11-20T09:32:57.192Z,1007.37
2022-11-20T09:33:56.821Z,1007.38
2022-11-20T09:34:56.942Z,1007.38
2022-11-20T09:35:57.167Z,1007.42
2022-11-20T09:36:56.848Z,1007.42
2022-11-20T09:37:56.647Z,1007.44
2022-11-20T09:38:56.628Z,1007.41
2022-11-20T09:39:57.117Z,1007.41
2022-11-20T09:40:56.747Z,1007.42
2022-11-20T09:41:57.088Z,1007.43
2022-11-20T09:42:56.588Z,1007.46
2022-11-20T09:43:56.578Z,1007.43
2022-11-20T09:44:56.561Z,1007.41
2022-11-20T09:45:57.048Z,1007.40
2022-11-20T09:46:56.654Z,1007.34
2022-11-20T09:47:56.528Z,1007.34
2022-11-20T09:48:57.018Z,1007.33
2022-11-20T09:49:56.538Z,1007.27
2022-11-20T09:50:57.179Z,1007.26
2022-11-20T09:51:55.563Z,1007.21
2022-11-20T09:52:57.518Z,1007.20
2022-11-20T09:53:56.472Z,1007.19
2022-11-20T09:54:56.479Z,1007.19
2022-11-20T09:55:58.200Z,1007.14
2022-11-20T09:56:56.439Z,1007.14
2022-11-20T09:57:57.453Z,1007.17
2022-11-20T09:58:57.540Z,1007.16
2022-11-20T09:59:57.409Z,1007.12
2022-11-20T10:00:56.462Z,1007.20
2022-11-20T10:01:57.401Z,1007.10
2022-11-20T10:02:56.377Z,1007.12
2022-11-20T10:03:56.880Z,1007.16
2022-11-20T10:04:57.022Z,1007.14
2022-11-20T10:05:57.072Z,1007.16
2022-11-20T10:07:30.149Z,1007.14
2022-11-20T10:07:57.375Z,1007.09
2022-11-20T10:08:56.321Z,1007.06
2022-11-20T10:09:56.315Z,1007.05
2022-11-20T10:10:56.355Z,1007.09
2022-11-20T10:11:56.679Z,1007.03
2022-11-20T10:12:55.512Z,1007.07
2022-11-20T10:13:56.291Z,1007.04
2022-11-20T10:14:56.954Z,1007.00
2022-11-20T10:15:57.723Z,1007.01
2022-11-20T10:16:56.270Z,1007.02
2022-11-20T10:17:56.232Z,1007.04
2022-11-20T10:18:56.747Z,1006.99
2022-11-20T10:19:56.721Z,1006.99
2022-11-20T10:20:57.295Z,1007.00
2022-11-20T10:21:55.480Z,1007.03
2022-11-20T10:22:57.287Z,1007.06
2022-11-20T10:23:58.819Z,1007.10
2022-11-20T10:24:55.639Z,1007.06
2022-11-20T10:25:58.154Z,1007.07
2022-11-20T10:26:55.504Z,1007.05
2022-11-20T10:27:55.194Z,1007.06
2022-11-20T10:28:59.897Z,1007.04
2022-11-20T10:29:57.122Z,1007.02
2022-11-20T10:30:56.094Z,1007.05
2022-11-20T10:31:56.603Z,1007.02
2022-11-20T10:32:56.593Z,1006.99
2022-11-20T10:34:11.559Z,1006.97
2022-11-20T10:34:56.175Z,1006.95
2022-11-20T10:35:55.384Z,1006.88
2022-11-20T10:36:56.086Z,1006.89
2022-11-20T10:37:56.534Z,1006.94
2022-11-20T10:38:56.016Z,1006.98
2022-11-20T10:39:57.039Z,1006.94
2022-11-20T10:40:56.562Z,1007.01
2022-11-20T10:41:56.055Z,1006.99
2022-11-20T10:43:00.471Z,1006.98
2022-11-20T10:43:55.485Z,1006.97
2022-11-20T10:44:57.730Z,1006.97
2022-11-20T10:45:56.438Z,1006.97
2022-11-20T10:46:56.115Z,1006.97
2022-11-20T10:47:55.995Z,1006.96
2022-11-20T10:48:56.985Z,1006.94
2022-11-20T10:49:55.381Z,1006.90
2022-11-20T10:50:59.294Z,1006.93
2022-11-20T10:51:56.439Z,1006.85
2022-11-20T10:52:54.966Z,1006.82
2022-11-20T10:53:56.379Z,1006.81
2022-11-20T10:54:55.846Z,1006.84
2022-11-20T10:55:55.846Z,1006.87
2022-11-20T10:56:55.887Z,1006.83
2022-11-20T10:57:56.026Z,1006.84
2022-11-20T10:58:56.327Z,1006.87
2022-11-20T10:59:55.819Z,1006.81
2022-11-20T11:00:56.302Z,1006.81
2022-11-20T11:01:54.864Z,1006.80
2022-11-20T11:02:55.817Z,1006.76
2022-11-20T11:03:56.282Z,1006.75
2022-11-20T11:04:55.817Z,1006.75
2022-11-20T11:05:55.808Z,1006.75
2022-11-20T11:06:55.750Z,1006.76
2022-11-20T11:07:54.810Z,1006.78
2022-11-20T11:08:54.817Z,1006.67
2022-11-20T11:09:56.189Z,1006.66
2022-11-20T11:10:56.258Z,1006.73
2022-11-20T11:11:56.212Z,1006.72
2022-11-20T11:12:54.738Z,1006.64
2022-11-20T11:13:55.669Z,1006.68
2022-11-20T11:14:56.159Z,1006.62
2022-11-20T11:15:55.629Z,1006.56
2022-11-20T11:16:56.188Z,1006.53
2022-11-20T11:17:54.709Z,1006.51
2022-11-20T11:18:55.619Z,1006.52
2022-11-20T11:19:56.123Z,1006.52
2022-11-20T11:20:55.618Z,1006.52
2022-11-20T11:21:56.196Z,1006.48
2022-11-20T11:22:56.180Z,1006.45
2022-11-20T11:24:03.719Z,1006.47
2022-11-20T11:24:57.044Z,1006.49
2022-11-20T11:25:55.564Z,1006.47
2022-11-20T11:26:55.500Z,1006.46
2022-11-20T11:27:56.912Z,1006.41
2022-11-20T11:28:55.187Z,1006.46
2022-11-20T11:29:54.570Z,1006.46
2022-11-20T11:30:55.540Z,1006.41
2022-11-20T11:31:54.571Z,1006.42
2022-11-20T11:32:55.363Z,1006.42
2022-11-20T11:33:55.361Z,1006.39
2022-11-20T11:34:55.354Z,1006.38
2022-11-20T11:35:55.940Z,1006.34
2022-11-20T11:36:54.499Z,1006.34
2022-11-20T11:37:55.320Z,1006.30
2022-11-20T11:38:55.392Z,1006.30
2022-11-20T11:40:16.507Z,1006.32
2022-11-20T11:40:56.499Z,1006.30
2022-11-20T11:41:55.961Z,1006.25
2022-11-20T11:42:55.873Z,1006.24
2022-11-20T11:43:55.323Z,1006.26
2022-11-20T11:44:54.414Z,1006.27
2022-11-20T11:45:55.354Z,1006.27
2022-11-20T11:46:55.425Z,1006.28
2022-11-20T11:47:56.313Z,1006.31
2022-11-20T11:48:55.803Z,1006.25
2022-11-20T11:49:56.285Z,1006.27
2022-11-20T11:50:55.776Z,1006.25
2022-11-20T11:51:54.332Z,1006.24
2022-11-20T11:52:55.303Z,1006.21
2022-11-20T11:53:54.302Z,1006.19
2022-11-20T11:54:55.704Z,1006.20
2022-11-20T11:55:55.214Z,1006.19
2022-11-20T11:56:54.303Z,1006.21
2022-11-20T11:57:54.907Z,1006.19
2022-11-20T11:58:54.364Z,1006.24
2022-11-20T11:59:55.155Z,1006.23
2022-11-20T12:00:55.165Z,1006.21
2022-11-20T12:01:55.716Z,1006.24
2022-11-20T12:02:56.134Z,1006.20
2022-11-20T12:03:56.124Z,1006.26
2022-11-20T12:04:55.631Z,1006.21
2022-11-20T12:05:55.593Z,1006.16